createdAt,value
2018-01-05T07:30:03.647Z,6.50
2018-01-05T07:32:29.426Z,6.61
2018-01-05T07:34:55.200Z,6.68
2018-01-05T07:37:20.976Z,6.68
2018-01-05T07:39:46.746Z,6.65
2018-01-05T07:42:12.844Z,6.71
2018-01-05T07:44:38.639Z,6.72
2018-01-05T07:47:04.422Z,6.70
2018-01-05T07:49:30.222Z,6.74
2018-01-05T07:51:55.986Z,6.77
2018-01-05T07:54:21.766Z,6.74
2018-01-05T07:56:47.575Z,6.78
2018-01-05T07:59:13.352Z,6.74
2018-01-05T08:01:39.175Z,6.76
2018-01-05T08:04:05.403Z,6.95
2018-01-05T08:06:31.188Z,6.89
2018-01-05T08:08:56.974Z,6.87
2018-01-05T08:11:22.922Z,6.85
2018-01-05T08:13:48.716Z,6.97
2018-01-05T08:16:14.531Z,7.30
2018-01-05T08:18:40.319Z,6.87
2018-01-05T08:21:06.120Z,7.00
2018-01-05T08:23:39.006Z,6.84
2018-01-05T08:26:06.255Z,6.84
2018-01-05T08:28:32.046Z,7.17
2018-01-05T08:30:57.814Z,6.87
2018-01-05T08:33:23.608Z,6.90
2018-01-05T08:35:49.381Z,6.84
2018-01-05T08:38:15.214Z,6.83
2018-01-05T08:40:41.037Z,6.86
2018-01-05T08:43:06.823Z,6.79
2018-01-05T08:45:32.611Z,6.88
2018-01-05T08:47:58.406Z,6.89
2018-01-05T08:50:24.187Z,6.80
2018-01-05T08:52:50.015Z,6.74
2018-01-05T08:55:15.819Z,6.74
2018-01-05T08:57:41.608Z,6.67
2018-01-05T09:00:07.441Z,6.68
2018-01-05T09:02:33.247Z,6.80
2018-01-05T09:04:59.039Z,6.61
2018-01-05T09:07:24.841Z,6.57
2018-01-05T09:09:50.634Z,6.50
2018-01-05T09:12:16.425Z,6.45
2018-01-05T09:14:42.243Z,6.51
2018-01-05T09:17:08.031Z,6.38
2018-01-05T09:19:33.806Z,6.36
2018-01-05T09:21:59.610Z,6.28
2018-01-05T09:24:25.394Z,6.34
2018-01-05T09:26:51.181Z,6.23
2018-01-05T09:29:16.985Z,6.25
2018-01-05T09:31:42.762Z,6.20
2018-01-05T09:34:08.542Z,6.15
2018-01-05T09:36:34.370Z,6.13
2018-01-05T09:39:00.160Z,6.14
2018-01-05T09:41:25.942Z,6.09
2018-01-05T09:43:51.911Z,6.03
2018-01-05T09:46:17.733Z,6.01
2018-01-05T09:48:43.510Z,6.01
2018-01-05T09:51:09.348Z,6.09
2018-01-05T09:53:35.125Z,6.10
2018-01-05T09:56:00.895Z,5.96
2018-01-05T09:58:26.706Z,5.92
2018-01-05T10:00:52.504Z,5.98
2018-01-05T10:03:18.302Z,5.90
2018-01-05T10:05:44.115Z,5.94
2018-01-05T10:08:09.907Z,5.89
2018-01-05T10:10:35.679Z,5.91
2018-01-05T10:13:01.499Z,5.77
2018-01-05T10:15:27.278Z,5.84
2018-01-05T10:17:53.067Z,5.77
2018-01-05T10:20:19.190Z,5.69
2018-01-05T10:22:44.974Z,5.83
2018-01-05T10:25:10.766Z,5.78
2018-01-05T10:27:36.617Z,5.85
2018-01-05T10:30:02.419Z,5.74
2018-01-05T10:32:28.188Z,5.72
2018-01-05T10:34:53.979Z,5.80
2018-01-05T10:37:19.742Z,5.81
2018-01-05T10:39:45.513Z,5.80
2018-01-05T10:42:11.314Z,5.82
2018-01-05T10:44:37.122Z,5.80
2018-01-05T10:47:02.894Z,5.88
2018-01-05T10:49:28.721Z,5.91
2018-01-05T10:51:54.503Z,5.99
2018-01-05T10:54:20.286Z,5.94
2018-01-05T10:56:46.091Z,6.15
2018-01-05T10:59:11.874Z,6.02
2018-01-05T11:01:37.650Z,5.86
2018-01-05T11:04:03.457Z,5.86
2018-01-05T11:06:29.240Z,5.88
2018-01-05T11:08:55.032Z,5.97
2018-01-05T11:11:20.854Z,5.99
2018-01-05T11:13:46.634Z,5.94
2018-01-05T11:16:12.422Z,6.96
2018-01-05T11:18:38.235Z,6.65
2018-01-05T11:21:04.019Z,7.38
2018-01-05T11:23:29.795Z,6.99
2018-01-05T11:25:55.597Z,6.69
2018-01-05T11:28:21.388Z,7.01
2018-01-05T11:30:47.157Z,6.54
2018-01-05T11:33:12.964Z,7.01
2018-01-05T11:35:38.752Z,7.34
2018-01-05T11:38:04.542Z,7.41
2018-01-05T11:40:30.346Z,6.93
2018-01-05T11:42:56.128Z,7.18
2018-01-05T11:45:21.919Z,7.35
2018-01-05T11:47:47.727Z,7.01
2018-01-05T11:50:13.504Z,7.01
2018-01-05T11:52:39.275Z,7.14
2018-01-05T11:55:05.044Z,7.08
2018-01-05T11:57:31.205Z,7.22
2018-01-05T11:59:56.992Z,7.60
2018-01-05T12:02:22.770Z,6.82
2018-01-05T12:04:48.570Z,7.42
2018-01-05T12:07:14.351Z,7.05
2018-01-05T12:09:40.142Z,8.05
2018-01-05T12:12:05.942Z,7.46
2018-01-05T12:14:31.727Z,6.42
2018-01-05T12:16:57.502Z,6.18
2018-01-05T12:19:30.224Z,6.04
2018-01-05T12:21:56.009Z,5.73
2018-01-05T12:24:21.794Z,5.78
2018-01-05T12:26:47.784Z,5.85
2018-01-05T12:29:13.601Z,5.71
2018-01-05T12:31:39.379Z,5.74
2018-01-05T12:34:05.183Z,5.75
2018-01-05T12:36:30.971Z,5.68
2018-01-05T12:38:56.755Z,5.65
2018-01-05T12:41:22.559Z,5.70
2018-01-05T12:43:48.598Z,5.73
2018-01-05T12:46:14.391Z,5.63
2018-01-05T12:48:40.208Z,5.43
2018-01-05T12:51:05.978Z,5.53
2018-01-05T12:53:31.768Z,5.64
2018-01-05T12:55:57.818Z,5.47
2018-01-05T12:58:23.611Z,5.45
2018-01-05T13:00:49.386Z,5.56
2018-01-05T13:03:15.264Z,5.58
2018-01-05T13:05:41.072Z,5.47
2018-01-05T13:08:06.885Z,5.47
2018-01-05T13:10:32.663Z,5.46
2018-01-05T13:12:58.698Z,5.40
2018-01-05T13:15:24.485Z,5.47
2018-01-05T13:17:50.684Z,5.49
2018-01-05T13:20:16.544Z,5.48
2018-01-05T13:22:43.142Z,5.44
2018-01-05T13:25:17.016Z,5.50
2018-01-05T13:27:43.686Z,5.45
2018-01-05T13:30:17.495Z,5.43
2018-01-05T13:32:44.436Z,5.44
2018-01-05T13:35:10.383Z,5.52
2018-01-05T13:37:36.193Z,5.51
2018-01-05T13:40:02.420Z,5.68
2018-01-05T13:42:28.223Z,5.52
2018-01-05T13:44:54.345Z,5.41
2018-01-05T13:47:20.472Z,5.50
2018-01-05T13:49:46.367Z,5.50
2018-01-05T13:52:12.195Z,5.56
2018-01-05T13:54:38.135Z,5.64
2018-01-05T13:57:04.161Z,5.73
2018-01-05T13:59:36.819Z,5.62
2018-01-05T14:02:02.759Z,5.64
2018-01-05T14:04:28.559Z,5.64
2018-01-05T14:06:54.354Z,5.61
2018-01-05T14:09:20.138Z,5.65
2018-01-05T14:11:46.756Z,5.55
2018-01-05T14:14:12.971Z,5.61
2018-01-05T14:16:38.760Z,5.61
2018-01-05T14:19:04.551Z,5.62
2018-01-05T14:21:30.364Z,5.64
2018-01-05T14:23:56.158Z,5.70
2018-01-05T14:26:21.995Z,5.68
2018-01-05T14:28:47.799Z,5.71
2018-01-05T14:31:13.599Z,5.79
2018-01-05T14:33:39.417Z,5.73
2018-01-05T14:36:05.498Z,5.73
2018-01-05T14:38:31.331Z,5.72
2018-01-05T14:40:57.282Z,5.73
2018-01-05T14:43:23.117Z,5.72
2018-01-05T14:45:49.504Z,5.79
2018-01-05T14:48:15.298Z,5.75
2018-01-05T14:50:41.430Z,5.75
2018-01-05T14:53:07.266Z,5.76
2018-01-05T14:55:33.047Z,5.82
2018-01-05T14:57:59.235Z,5.81
2018-01-05T15:00:25.035Z,5.77
2018-01-05T15:02:50.820Z,5.77
2018-01-05T15:05:16.758Z,5.80
2018-01-05T15:07:42.571Z,5.77
2018-01-05T15:10:08.338Z,5.68
2018-01-05T15:12:34.156Z,5.68
2018-01-05T15:14:59.938Z,5.66
2018-01-05T15:17:25.719Z,5.64
2018-01-05T15:19:51.515Z,5.60
2018-01-05T15:22:17.307Z,5.59
2018-01-05T15:24:43.121Z,5.58
2018-01-05T15:27:08.894Z,5.50
2018-01-05T15:29:34.698Z,5.49
2018-01-05T15:32:00.494Z,5.40
2018-01-05T15:34:26.290Z,5.38
2018-01-05T15:36:52.329Z,5.38
2018-01-05T15:39:18.148Z,5.31
2018-01-05T15:41:43.935Z,5.29
2018-01-05T15:44:09.908Z,5.26
2018-01-05T15:46:35.725Z,5.30
2018-01-05T15:49:01.543Z,5.28
2018-01-05T15:51:27.355Z,5.25
2018-01-05T15:53:53.143Z,5.26
2018-01-05T15:56:18.925Z,5.24
2018-01-05T15:58:44.720Z,5.21
2018-01-05T16:01:10.819Z,5.27
2018-01-05T16:03:36.634Z,5.32
2018-01-05T16:06:02.447Z,5.24
2018-01-05T16:08:28.247Z,5.24
2018-01-05T16:10:54.022Z,5.32
2018-01-05T16:13:19.819Z,5.29
2018-01-05T16:15:45.632Z,5.27
2018-01-05T16:18:11.451Z,5.23
2018-01-05T16:20:37.253Z,5.00
2018-01-05T16:23:03.050Z,5.12
2018-01-05T16:25:28.852Z,5.18
2018-01-05T16:27:54.656Z,5.21
2018-01-05T16:30:20.447Z,5.17
2018-01-05T16:32:46.239Z,5.21
2018-01-05T16:35:12.167Z,5.22
2018-01-05T16:37:37.966Z,5.25
2018-01-05T16:40:03.818Z,5.26
2018-01-05T16:42:29.634Z,5.24
2018-01-05T16:44:55.408Z,5.24
2018-01-05T16:47:21.266Z,5.20
2018-01-05T16:49:47.060Z,5.25
2018-01-05T16:52:12.970Z,5.20
2018-01-05T16:54:38.763Z,5.20
2018-01-05T16:57:04.844Z,5.23
2018-01-05T16:59:30.623Z,5.17
2018-01-05T17:01:56.414Z,5.21
2018-01-05T17:04:22.307Z,5.19
2018-01-05T17:06:48.092Z,5.19
2018-01-05T17:09:33.432Z,5.19
2018-01-05T17:11:59.553Z,5.14
2018-01-05T17:14:25.407Z,5.19
2018-01-05T17:19:23.232Z,5.05
2018-01-05T17:21:49.128Z,5.10
2018-01-05T17:24:14.970Z,5.05
2018-01-05T17:26:40.967Z,5.05
2018-01-05T17:29:06.811Z,5.08
2018-01-05T17:31:33.111Z,5.04
2018-01-05T17:33:58.910Z,4.95
2018-01-05T17:36:24.978Z,4.95
2018-01-05T17:38:50.834Z,4.91
2018-01-05T17:41:16.618Z,4.93
2018-01-05T17:43:42.390Z,4.94
2018-01-05T17:46:08.206Z,4.99
2018-01-05T17:48:34.018Z,4.97
2018-01-05T17:50:59.801Z,4.99
2018-01-05T17:53:25.819Z,5.01
2018-01-05T17:55:51.601Z,5.03
2018-01-05T17:58:24.255Z,5.10
2018-01-05T18:00:50.268Z,5.08
2018-01-05T18:03:16.059Z,5.09
2018-01-05T18:05:41.839Z,5.12
2018-01-05T18:08:08.808Z,5.20
2018-01-05T18:10:34.583Z,5.13
2018-01-05T18:13:00.550Z,5.10
2018-01-05T18:15:26.360Z,5.07
2018-01-05T18:17:52.330Z,5.06
2018-01-05T18:20:18.131Z,5.08
2018-01-05T18:22:44.549Z,5.13
2018-01-05T18:25:10.347Z,5.12
2018-01-05T18:27:36.127Z,5.12
2018-01-05T18:30:02.188Z,5.16
2018-01-05T18:32:27.974Z,5.22
2018-01-05T18:34:54.432Z,5.20
2018-01-05T18:37:20.223Z,5.28
2018-01-05T18:39:47.034Z,5.33
2018-01-05T18:42:12.846Z,5.30
2018-01-05T18:44:39.288Z,5.34
2018-01-05T18:47:07.740Z,5.37
2018-01-05T18:49:34.481Z,5.34
2018-01-05T18:52:00.293Z,5.34
2018-01-05T18:54:26.096Z,5.33
2018-01-05T18:56:52.123Z,5.33
2018-01-05T18:59:17.906Z,5.24
2018-01-05T19:01:43.867Z,5.21
2018-01-05T19:04:09.692Z,5.19
2018-01-05T19:06:35.486Z,5.25
2018-01-05T19:11:33.925Z,5.19
2018-01-05T19:13:59.719Z,5.14
2018-01-05T19:16:25.506Z,5.17
2018-01-05T19:18:51.294Z,5.20
2018-01-05T19:21:17.084Z,5.14
2018-01-05T19:23:43.074Z,5.11
2018-01-05T19:26:08.854Z,5.07
2018-01-05T19:28:35.050Z,5.10
2018-01-05T19:31:00.906Z,5.08
2018-01-05T19:33:26.756Z,5.15
2018-01-05T19:35:52.552Z,5.14
2018-01-05T19:38:18.661Z,5.18
2018-01-05T19:40:44.534Z,5.14
2018-01-05T19:43:10.865Z,5.17
2018-01-05T19:45:37.008Z,5.23
2018-01-05T19:48:03.090Z,5.19
2018-01-05T19:50:29.070Z,5.12
2018-01-05T19:52:54.910Z,5.15
2018-01-05T19:55:21.137Z,5.17
2018-01-05T19:57:47.919Z,5.25
2018-01-05T20:00:14.050Z,5.27
2018-01-05T20:02:39.859Z,5.25
2018-01-05T20:05:06.058Z,5.28
2018-01-05T20:07:31.883Z,5.24
2018-01-05T20:09:57.667Z,5.24
2018-01-05T20:12:23.744Z,5.21
2018-01-05T20:14:50.504Z,5.27
2018-01-05T20:17:16.336Z,5.30
2018-01-05T20:19:42.258Z,5.26
2018-01-05T20:22:08.295Z,5.29
2018-01-05T20:24:34.107Z,5.33
2018-01-05T20:27:00.494Z,5.31
2018-01-05T20:29:27.153Z,5.30
2018-01-05T20:31:53.334Z,5.25
2018-01-05T20:34:19.205Z,5.26
2018-01-05T20:36:45.733Z,5.24
2018-01-05T20:39:12.278Z,5.44
2018-01-05T20:41:38.728Z,5.66
2018-01-05T20:44:06.570Z,5.69
2018-01-05T20:46:32.436Z,5.84
2018-01-05T20:48:58.517Z,6.16
2018-01-05T20:51:24.310Z,5.86
2018-01-05T20:53:50.110Z,6.13
2018-01-05T20:56:15.893Z,6.40
2018-01-05T20:58:41.696Z,7.03
2018-01-05T21:01:07.526Z,6.55
2018-01-05T21:03:33.359Z,6.18
2018-01-05T21:05:59.147Z,6.27
2018-01-05T21:08:24.927Z,5.85
2018-01-05T21:10:51.487Z,6.22
2018-01-05T21:13:17.267Z,5.98
2018-01-05T21:15:43.251Z,6.08
2018-01-05T21:18:09.055Z,6.50
2018-01-05T21:20:35.058Z,6.92
2018-01-05T21:23:00.848Z,6.51
2018-01-05T21:25:26.656Z,6.49
2018-01-05T21:27:52.438Z,6.36
2018-01-05T21:30:18.766Z,6.94
2018-01-05T21:32:44.569Z,6.35
2018-01-05T21:35:10.387Z,6.24
2018-01-05T21:37:36.166Z,6.54
2018-01-05T21:40:02.255Z,6.28
2018-01-05T21:42:28.078Z,6.50
2018-01-05T21:44:53.864Z,6.66
2018-01-05T21:47:20.742Z,6.58
2018-01-05T21:49:46.718Z,6.44
2018-01-05T21:52:12.496Z,6.38
2018-01-05T21:54:38.681Z,6.54
2018-01-05T21:57:04.523Z,6.67
2018-01-05T21:59:30.526Z,6.17
2018-01-05T22:01:56.344Z,6.62
2018-01-05T22:04:23.139Z,6.16
2018-01-05T22:06:48.978Z,6.83
2018-01-05T22:09:16.948Z,6.68
2018-01-05T22:11:43.193Z,6.05
2018-01-05T22:14:09.107Z,6.36
2018-01-05T22:16:34.891Z,6.48
2018-01-05T22:19:00.682Z,6.08
2018-01-05T22:21:26.494Z,5.90
2018-01-05T22:23:52.512Z,5.77
2018-01-05T22:26:18.619Z,5.70
2018-01-05T22:28:44.423Z,5.58
2018-01-05T22:31:13.460Z,5.62
2018-01-05T22:33:39.353Z,5.58
2018-01-05T22:36:05.176Z,5.38
2018-01-05T22:38:30.962Z,5.51
2018-01-05T22:40:56.998Z,5.52
2018-01-05T22:43:22.927Z,5.47
2018-01-05T22:45:48.777Z,5.44
2018-01-05T22:48:14.551Z,5.39
2018-01-05T22:50:40.340Z,5.35
2018-01-05T22:53:06.339Z,5.42
2018-01-05T22:55:32.236Z,5.43
2018-01-05T22:57:58.310Z,5.41
2018-01-05T23:00:24.142Z,5.33
2018-01-05T23:02:50.025Z,5.39
2018-01-05T23:05:15.866Z,5.53
2018-01-05T23:07:41.828Z,5.51
2018-01-05T23:10:07.598Z,5.45
2018-01-05T23:12:33.382Z,5.52
2018-01-05T23:14:59.206Z,5.44
2018-01-05T23:17:25.046Z,5.45
2018-01-05T23:19:50.874Z,5.35
2018-01-05T23:22:16.698Z,5.34
2018-01-05T23:24:42.720Z,5.65
2018-01-05T23:27:08.604Z,5.96
2018-01-05T23:29:34.377Z,5.92
2018-01-05T23:32:00.194Z,5.61
2018-01-05T23:34:25.980Z,5.52
2018-01-05T23:36:52.651Z,5.48
2018-01-05T23:39:18.782Z,5.49
2018-01-05T23:41:44.575Z,5.54
2018-01-05T23:44:10.847Z,5.44
2018-01-05T23:46:36.646Z,5.58
2018-01-05T23:49:02.589Z,5.70
2018-01-05T23:51:28.459Z,5.85
2018-01-05T23:53:54.348Z,5.78
2018-01-05T23:56:20.173Z,5.75
2018-01-05T23:58:46.978Z,5.95
